createdAt,value
2019-03-06T00:01:54.670Z,100662.22
2019-03-06T00:04:24.446Z,100656.84
2019-03-06T00:06:54.022Z,100651.11
2019-03-06T00:09:23.882Z,100658.80
2019-03-06T00:11:53.555Z,100656.75
2019-03-06T00:14:23.236Z,100657.65
2019-03-06T00:16:53.060Z,100654.16
2019-03-06T00:19:22.638Z,100653.75
2019-03-06T00:21:52.245Z,100660.18
2019-03-06T00:24:21.981Z,100655.66
2019-03-06T00:26:51.795Z,100658.16
2019-03-06T00:29:22.038Z,100655.50
2019-03-06T00:31:51.785Z,100652.02
2019-03-06T00:34:21.475Z,100663.45
2019-03-06T00:36:51.110Z,100659.11
2019-03-06T00:39:20.956Z,100663.47
2019-03-06T00:41:50.538Z,100666.67
2019-03-06T00:44:20.147Z,100663.98
2019-03-06T00:46:50.055Z,100662.58
2019-03-06T00:49:19.818Z,100666.92
2019-03-06T00:51:49.483Z,100663.75
2019-03-06T00:54:19.696Z,100665.22
2019-03-06T00:56:49.445Z,100668.63
2019-03-06T00:59:19.265Z,100678.43
2019-03-06T01:01:49.155Z,100674.66
2019-03-06T01:04:19.224Z,100673.20
2019-03-06T01:06:48.999Z,100677.37
2019-03-06T01:09:18.877Z,100674.31
2019-03-06T01:11:48.662Z,100675.03
2019-03-06T01:14:18.397Z,100666.77
2019-03-06T01:16:48.529Z,100659.33
2019-03-06T01:19:18.228Z,100669.64
2019-03-06T01:21:47.790Z,100670.27
2019-03-06T01:24:17.896Z,100671.05
2019-03-06T01:26:47.511Z,100674.28
2019-03-06T01:29:17.120Z,100677.25
2019-03-06T01:31:46.888Z,100674.08
2019-03-06T01:34:18.186Z,100678.33
2019-03-06T01:36:56.903Z,100673.30
2019-03-06T01:39:47.129Z,100673.72
2019-03-06T01:42:36.648Z,100669.87
2019-03-06T01:45:08.514Z,100668.99
2019-03-06T01:47:39.839Z,100671.48
2019-03-06T01:50:11.633Z,100665.91
2019-03-06T01:52:41.367Z,100671.80
2019-03-06T01:55:14.343Z,100670.63
2019-03-06T01:57:44.059Z,100673.30
2019-03-06T02:00:18.573Z,100674.08
2019-03-06T02:02:48.687Z,100671.20
2019-03-06T02:05:18.699Z,100680.02
2019-03-06T02:07:48.588Z,100663.72
2019-03-06T02:10:18.586Z,100676.67
2019-03-06T02:12:49.353Z,100662.85
2019-03-06T02:15:22.218Z,100673.53
2019-03-06T02:17:51.901Z,100671.20
2019-03-06T02:20:21.519Z,100666.62
2019-03-06T02:22:51.483Z,100664.22
2019-03-06T02:25:21.330Z,100659.45
2019-03-06T02:27:51.527Z,100661.95
2019-03-06T02:30:24.474Z,100659.59
2019-03-06T02:32:54.205Z,100658.47
2019-03-06T02:35:23.795Z,100658.05
2019-03-06T02:37:53.883Z,100652.59
2019-03-06T02:40:23.519Z,100655.16
2019-03-06T02:42:53.652Z,100655.84
2019-03-06T02:45:23.362Z,100647.53
2019-03-06T02:47:52.943Z,100643.52
2019-03-06T02:50:23.072Z,100637.86
2019-03-06T02:52:52.859Z,100641.95
2019-03-06T02:55:23.690Z,100642.88
2019-03-06T02:57:55.385Z,100632.53
2019-03-06T03:00:29.291Z,100633.55
2019-03-06T03:03:00.543Z,100625.30
2019-03-06T03:05:31.971Z,100631.33
2019-03-06T03:08:01.743Z,100627.79
2019-03-06T03:10:31.435Z,100624.19
2019-03-06T03:13:02.080Z,100624.81
2019-03-06T03:15:31.680Z,100628.44
2019-03-06T03:18:01.436Z,100631.29
2019-03-06T03:20:32.322Z,100645.45
2019-03-06T03:23:02.076Z,100645.30
2019-03-06T03:25:31.845Z,100637.02
2019-03-06T03:28:01.684Z,100637.91
2019-03-06T03:30:31.369Z,100636.80
2019-03-06T03:33:01.074Z,100628.40
2019-03-06T03:35:31.457Z,100627.97
2019-03-06T03:38:01.228Z,100624.84
2019-03-06T03:40:30.922Z,100616.84
2019-03-06T03:43:00.561Z,100617.77
2019-03-06T03:45:30.224Z,100619.47
2019-03-06T03:47:59.950Z,100610.78
2019-03-06T03:50:29.850Z,100606.48
2019-03-06T03:52:59.992Z,100602.53
2019-03-06T03:55:32.217Z,100613.45
2019-03-06T03:58:01.946Z,100608.45
2019-03-06T04:00:32.079Z,100628.78
2019-03-06T04:03:01.779Z,100625.61
2019-03-06T04:05:31.517Z,100624.92
2019-03-06T04:08:01.232Z,100619.71
2019-03-06T04:10:32.382Z,100628.62
2019-03-06T04:13:02.030Z,100626.08
2019-03-06T04:15:31.670Z,100626.39
2019-03-06T04:18:01.372Z,100612.20
2019-03-06T04:20:31.523Z,100610.30
2019-03-06T04:23:01.280Z,100607.91
2019-03-06T04:25:31.275Z,100602.59
2019-03-06T04:28:00.859Z,100603.49
2019-03-06T04:30:30.586Z,100596.19
2019-03-06T04:33:00.228Z,100591.77
2019-03-06T04:35:30.101Z,100599.66
2019-03-06T04:38:00.192Z,100606.48
2019-03-06T04:40:30.022Z,100598.02
2019-03-06T04:43:00.549Z,100591.77
2019-03-06T04:45:30.429Z,100593.20
2019-03-06T04:48:00.146Z,100589.57
2019-03-06T04:50:30.154Z,100589.05
2019-03-06T04:52:59.881Z,100578.84
2019-03-06T04:55:29.748Z,100580.09
2019-03-06T04:58:01.421Z,100578.81
2019-03-06T05:00:31.585Z,100577.59
2019-03-06T05:03:01.589Z,100581.53
2019-03-06T05:05:31.727Z,100576.83
2019-03-06T05:08:01.466Z,100574.41
2019-03-06T05:10:31.085Z,100578.84
2019-03-06T05:13:00.784Z,100579.16
2019-03-06T05:15:30.643Z,100584.05
2019-03-06T05:18:09.606Z,100581.98
2019-03-06T05:20:39.318Z,100581.80
2019-03-06T05:23:09.056Z,100583.69
2019-03-06T05:25:38.768Z,100581.95
2019-03-06T05:28:08.423Z,100584.73
2019-03-06T05:30:38.049Z,100585.13
2019-03-06T05:33:12.611Z,100582.42
2019-03-06T05:36:01.902Z,100580.68
2019-03-06T05:38:44.949Z,100577.80
2019-03-06T05:41:14.611Z,100569.72
2019-03-06T05:43:44.262Z,100571.91
2019-03-06T05:46:14.283Z,100569.75
2019-03-06T05:48:44.227Z,100563.85
2019-03-06T05:51:13.851Z,100558.45
2019-03-06T05:53:43.994Z,100552.00
2019-03-06T05:56:13.696Z,100545.92
2019-03-06T05:58:43.480Z,100545.25
2019-03-06T06:01:13.217Z,100544.49
2019-03-06T06:03:42.797Z,100538.77
2019-03-06T06:06:12.505Z,100539.30
2019-03-06T06:08:42.269Z,100543.23
2019-03-06T06:11:11.914Z,100542.70
2019-03-06T06:13:41.740Z,100528.66
2019-03-06T06:16:11.996Z,100528.20
2019-03-06T06:18:41.904Z,100519.58
2019-03-06T06:21:21.969Z,100518.20
2019-03-06T06:23:59.243Z,100519.17
2019-03-06T06:26:30.484Z,100513.62
2019-03-06T06:29:00.313Z,100512.47
2019-03-06T06:31:29.974Z,100511.08
2019-03-06T06:34:02.485Z,100512.64
2019-03-06T06:36:32.981Z,100511.70
2019-03-06T06:39:02.570Z,100511.19
2019-03-06T06:41:32.437Z,100512.17
2019-03-06T06:44:02.169Z,100515.36
2019-03-06T06:46:31.860Z,100512.72
2019-03-06T06:49:03.547Z,100516.50
2019-03-06T06:51:55.496Z,100517.27
2019-03-06T06:54:53.845Z,100515.22
2019-03-06T06:57:57.796Z,100510.06
2019-03-06T07:01:15.707Z,100503.49
2019-03-06T07:04:10.556Z,100508.50
2019-03-06T07:06:41.877Z,100492.80
2019-03-06T07:09:29.729Z,100492.95
2019-03-06T07:12:04.885Z,100487.69
2019-03-06T07:14:42.286Z,100479.58
2019-03-06T07:17:13.932Z,100478.66
2019-03-06T07:19:45.119Z,100473.49
2019-03-06T07:22:19.380Z,100477.09
2019-03-06T07:25:02.891Z,100474.91
2019-03-06T07:27:34.648Z,100471.57
2019-03-06T07:30:21.883Z,100467.54
2019-03-06T07:33:02.146Z,100460.49
2019-03-06T07:36:10.054Z,100455.36
2019-03-06T07:38:40.180Z,100462.36
2019-03-06T07:41:09.619Z,100456.23
2019-03-06T07:43:45.238Z,100448.09
2019-03-06T07:46:17.240Z,100450.14
2019-03-06T07:48:51.140Z,100449.91
2019-03-06T07:51:38.431Z,100439.95
2019-03-06T07:54:29.263Z,100441.40
2019-03-06T07:57:11.241Z,100440.45
2019-03-06T07:59:42.324Z,100437.80
2019-03-06T08:02:45.141Z,100438.92
2019-03-06T08:05:15.285Z,100438.66
2019-03-06T08:07:46.391Z,100424.88
2019-03-06T08:10:19.252Z,100426.19
2019-03-06T08:12:53.699Z,100415.22
2019-03-06T08:15:25.237Z,100414.03
2019-03-06T08:18:04.123Z,100408.33
2019-03-06T08:20:41.570Z,100410.23
2019-03-06T08:23:11.038Z,100408.94
2019-03-06T08:25:42.213Z,100408.19
2019-03-06T08:28:12.863Z,100404.89
2019-03-06T08:30:57.128Z,100399.02
2019-03-06T08:33:27.829Z,100393.02
2019-03-06T08:35:57.633Z,100391.51
2019-03-06T08:38:28.015Z,100385.73
2019-03-06T08:41:04.306Z,100389.23
2019-03-06T08:43:31.183Z,100385.03
2019-03-06T08:46:00.912Z,100387.00
2019-03-06T08:48:33.560Z,100376.44
2019-03-06T08:51:06.236Z,100372.17
2019-03-06T08:53:43.520Z,100363.50
2019-03-06T08:56:17.158Z,100368.09
2019-03-06T08:58:52.878Z,100372.30
2019-03-06T09:01:42.991Z,100370.98
2019-03-06T09:04:21.153Z,100369.19
2019-03-06T09:07:08.182Z,100362.66
2019-03-06T09:09:44.003Z,100357.44
2019-03-06T09:12:32.647Z,100353.76
2019-03-06T09:15:08.061Z,100354.58
2019-03-06T09:17:55.510Z,100341.36
2019-03-06T09:20:37.341Z,100345.97
2019-03-06T09:23:26.444Z,100337.73
2019-03-06T09:26:11.354Z,100335.91
2019-03-06T09:29:01.338Z,100328.78
2019-03-06T09:31:49.486Z,100323.03
2019-03-06T09:34:23.822Z,100324.91
2019-03-06T09:37:02.777Z,100320.34
2019-03-06T09:39:38.638Z,100318.92
2019-03-06T09:42:10.477Z,100313.64
2019-03-06T09:44:50.819Z,100314.91
2019-03-06T09:47:22.471Z,100313.39
2019-03-06T09:49:58.293Z,100312.25
2019-03-06T09:52:37.181Z,100307.54
2019-03-06T09:55:21.658Z,100296.55
2019-03-06T09:57:53.065Z,100300.23
2019-03-06T10:00:24.625Z,100286.19
2019-03-06T10:03:06.781Z,100283.86
2019-03-06T10:05:41.347Z,100291.46
2019-03-06T10:08:12.904Z,100280.58
2019-03-06T10:10:47.740Z,100259.27
2019-03-06T10:13:28.061Z,100253.44
2019-03-06T10:16:03.551Z,100257.91
2019-03-06T10:18:36.252Z,100254.02
2019-03-06T10:21:06.834Z,100255.64
2019-03-06T10:23:38.106Z,100239.45
2019-03-06T10:26:08.130Z,100233.50
2019-03-06T10:28:38.525Z,100238.59
2019-03-06T10:31:09.504Z,100228.63
2019-03-06T10:33:41.528Z,100216.89
2019-03-06T10:36:12.227Z,100212.73
2019-03-06T10:38:42.134Z,100221.25
2019-03-06T10:41:13.494Z,100220.19
2019-03-06T10:43:49.055Z,100213.84
2019-03-06T10:46:15.585Z,100218.72
2019-03-06T10:48:48.446Z,100219.69
2019-03-06T10:51:19.304Z,100209.64
2019-03-06T10:53:49.479Z,100207.63
2019-03-06T10:56:19.973Z,100200.34
2019-03-06T10:58:49.929Z,100198.18
2019-03-06T11:01:21.450Z,100195.25
2019-03-06T11:03:56.872Z,100195.25
2019-03-06T11:06:26.704Z,100200.58
2019-03-06T11:08:56.509Z,100203.59
2019-03-06T11:11:26.720Z,100196.41
2019-03-06T11:14:03.380Z,100190.32
2019-03-06T11:16:29.604Z,100178.98
2019-03-06T11:19:00.592Z,100187.39
2019-03-06T11:21:30.517Z,100162.55
2019-03-06T11:24:02.065Z,100166.02
2019-03-06T11:26:33.875Z,100156.21
2019-03-06T11:29:04.944Z,100149.31
2019-03-06T11:31:35.341Z,100148.20
2019-03-06T11:34:07.374Z,100142.11
2019-03-06T11:36:37.810Z,100136.06
2019-03-06T11:39:12.812Z,100124.20
2019-03-06T11:41:43.778Z,100127.73
2019-03-06T11:44:14.232Z,100109.84
2019-03-06T11:46:44.927Z,100097.89
2019-03-06T11:49:17.962Z,100086.66
2019-03-06T11:51:47.853Z,100085.87
2019-03-06T11:54:18.050Z,100083.98
2019-03-06T11:56:47.921Z,100081.05
2019-03-06T11:59:18.268Z,100088.66
2019-03-06T12:01:51.875Z,100075.23
2019-03-06T12:04:22.387Z,100074.95
2019-03-06T12:06:52.340Z,100066.27
2019-03-06T12:09:30.093Z,100069.22
2019-03-06T12:12:00.104Z,100063.54
2019-03-06T12:14:29.860Z,100059.43
2019-03-06T12:16:59.479Z,100068.17
2019-03-06T12:19:29.210Z,100065.89
2019-03-06T12:21:59.686Z,100055.80
2019-03-06T12:24:29.414Z,100051.50
2019-03-06T12:26:59.274Z,100047.03
2019-03-06T12:29:28.978Z,100049.78
2019-03-06T12:32:00.747Z,100040.37
2019-03-06T12:34:30.649Z,100024.10
2019-03-06T12:37:00.903Z,100019.24
2019-03-06T12:39:30.626Z,100021.64
2019-03-06T12:42:00.282Z,100014.47
2019-03-06T12:44:29.866Z,100008.57
2019-03-06T12:46:59.805Z,99991.13
2019-03-06T12:49:29.548Z,99996.44
2019-03-06T12:51:59.247Z,100000.10
2019-03-06T12:54:29.050Z,99978.58
2019-03-06T12:56:59.065Z,99976.77
2019-03-06T12:59:28.980Z,99963.66
2019-03-06T13:02:00.202Z,99952.77
2019-03-06T13:04:32.891Z,99936.39
2019-03-06T13:07:02.421Z,99935.28
2019-03-06T13:09:32.917Z,99925.80
2019-03-06T13:12:02.652Z,99928.09
2019-03-06T13:14:32.322Z,99921.72
2019-03-06T13:17:02.056Z,99904.68
2019-03-06T13:19:32.412Z,99898.43
2019-03-06T13:22:10.925Z,99885.64
2019-03-06T13:24:33.509Z,99874.49
2019-03-06T13:27:03.581Z,99876.33
2019-03-06T13:29:33.252Z,99881.69
2019-03-06T13:32:11.398Z,99868.98
2019-03-06T13:34:35.085Z,99861.08
2019-03-06T13:37:05.439Z,99849.20
2019-03-06T13:39:35.626Z,99852.84
2019-03-06T13:42:05.333Z,99848.81
2019-03-06T13:44:35.244Z,99854.88
2019-03-06T13:47:06.181Z,99849.56
2019-03-06T13:49:35.700Z,99852.81
2019-03-06T13:52:05.418Z,99841.94
2019-03-06T13:54:35.343Z,99840.25
2019-03-06T13:57:05.158Z,99831.03
2019-03-06T13:59:34.841Z,99831.48
2019-03-06T14:02:04.888Z,99830.00
2019-03-06T14:04:34.422Z,99819.31
2019-03-06T14:07:04.379Z,99804.56
2019-03-06T14:09:38.489Z,99812.30
2019-03-06T14:12:08.402Z,99815.02
2019-03-06T14:14:38.109Z,99800.12
2019-03-06T14:17:08.619Z,99799.09
2019-03-06T14:19:38.229Z,99792.33
2019-03-06T14:22:08.360Z,99794.25
2019-03-06T14:24:38.521Z,99799.56
2019-03-06T14:27:09.157Z,99802.52
2019-03-06T14:29:38.846Z,99798.16
2019-03-06T14:32:14.657Z,99796.05
2019-03-06T14:34:40.791Z,99778.41
2019-03-06T14:37:10.709Z,99789.62
2019-03-06T14:39:40.389Z,99784.30
2019-03-06T14:42:10.071Z,99766.36
2019-03-06T14:44:39.825Z,99750.18
2019-03-06T14:47:10.080Z,99746.62
2019-03-06T14:49:39.621Z,99734.72
2019-03-06T14:52:09.193Z,99731.68
2019-03-06T14:54:38.935Z,99717.75
2019-03-06T14:57:08.913Z,99717.03
2019-03-06T14:59:38.505Z,99707.73
2019-03-06T15:02:08.453Z,99708.23
2019-03-06T15:04:40.508Z,99689.16
2019-03-06T15:07:10.100Z,99693.12
2019-03-06T15:09:39.852Z,99698.61
2019-03-06T15:12:09.361Z,99679.05
2019-03-06T15:14:39.208Z,99667.33
2019-03-06T15:17:10.780Z,99684.55
2019-03-06T15:19:40.385Z,99667.72
2019-03-06T15:22:10.147Z,99680.58
2019-03-06T15:24:41.810Z,99668.25
2019-03-06T15:27:12.122Z,99654.52
2019-03-06T15:29:42.130Z,99643.91
2019-03-06T15:32:13.813Z,99643.27
2019-03-06T15:34:44.174Z,99641.08
2019-03-06T15:37:14.172Z,99644.00
2019-03-06T15:39:48.586Z,99656.83
2019-03-06T15:42:15.814Z,99639.74
2019-03-06T15:44:45.394Z,99639.05
2019-03-06T15:47:16.243Z,99637.09
2019-03-06T15:49:47.485Z,99630.63
2019-03-06T15:52:17.796Z,99617.27
2019-03-06T15:54:47.908Z,99618.03
2019-03-06T15:57:18.083Z,99607.49
2019-03-06T15:59:47.998Z,99604.72
2019-03-06T16:02:18.490Z,99595.39
2019-03-06T16:04:48.495Z,99591.44
2019-03-06T16:07:18.987Z,99585.97
2019-03-06T16:09:48.904Z,99567.71
2019-03-06T16:12:18.808Z,99588.58
2019-03-06T16:14:50.298Z,99578.19
2019-03-06T16:17:22.031Z,99582.39
2019-03-06T16:19:51.702Z,99579.00
2019-03-06T16:22:21.301Z,99587.64
2019-03-06T16:24:50.988Z,99580.14
2019-03-06T16:27:20.596Z,99593.12
2019-03-06T16:29:50.128Z,99578.41
2019-03-06T16:32:20.187Z,99572.98
2019-03-06T16:34:50.252Z,99584.34
2019-03-06T16:37:19.979Z,99587.05
2019-03-06T16:39:51.791Z,99587.38
2019-03-06T16:42:21.507Z,99587.45
2019-03-06T16:44:52.945Z,99590.30
2019-03-06T16:47:24.102Z,99571.20
2019-03-06T16:49:53.983Z,99578.05
2019-03-06T16:52:23.895Z,99571.95
2019-03-06T16:54:54.492Z,99574.29
2019-03-06T16:57:24.560Z,99569.39
2019-03-06T16:59:55.413Z,99572.16
2019-03-06T17:02:25.438Z,99574.61
2019-03-06T17:04:55.270Z,99575.96
2019-03-06T17:07:26.472Z,99570.84
2019-03-06T17:09:57.249Z,99569.86
2019-03-06T17:12:30.677Z,99574.81
2019-03-06T17:15:00.795Z,99574.13
2019-03-06T17:17:30.463Z,99564.72
2019-03-06T17:20:00.141Z,99573.89
2019-03-06T17:22:30.491Z,99568.11
2019-03-06T17:25:01.811Z,99562.23
2019-03-06T17:27:32.491Z,99564.88
2019-03-06T17:30:02.179Z,99566.20
2019-03-06T17:32:34.028Z,99560.52
2019-03-06T17:35:04.138Z,99568.45
2019-03-06T17:37:36.548Z,99570.45
2019-03-06T17:40:08.882Z,99578.36
2019-03-06T17:42:38.738Z,99568.34
2019-03-06T17:45:09.154Z,99575.47
2019-03-06T17:47:39.519Z,99577.95
2019-03-06T17:50:12.778Z,99579.87
2019-03-06T17:52:42.469Z,99574.89
2019-03-06T17:55:13.036Z,99563.16
2019-03-06T17:57:43.256Z,99576.70
2019-03-06T18:00:19.134Z,99573.75
2019-03-06T18:02:49.149Z,99572.11
2019-03-06T18:05:19.069Z,99558.95
2019-03-06T18:07:50.088Z,99555.17
2019-03-06T18:10:22.133Z,99544.13
2019-03-06T18:12:53.533Z,99542.61
2019-03-06T18:15:23.707Z,99535.04
2019-03-06T18:17:53.754Z,99527.19
2019-03-06T18:20:23.469Z,99530.41
2019-03-06T18:22:55.124Z,99521.63
2019-03-06T18:25:26.561Z,99517.44
2019-03-06T18:27:57.722Z,99509.54
2019-03-06T18:30:28.073Z,99509.73
2019-03-06T18:32:57.758Z,99515.78
2019-03-06T18:35:30.931Z,99502.28
2019-03-06T18:38:00.616Z,99501.92
2019-03-06T18:40:30.970Z,99489.28
2019-03-06T18:43:00.996Z,99490.28
2019-03-06T18:45:32.431Z,99490.20
2019-03-06T18:48:02.097Z,99488.02
2019-03-06T18:50:33.921Z,99484.45
2019-03-06T18:53:03.820Z,99488.73
2019-03-06T18:55:33.827Z,99474.50
2019-03-06T18:58:05.628Z,99471.62
2019-03-06T19:00:35.342Z,99471.52
2019-03-06T19:03:05.746Z,99469.68
2019-03-06T19:05:37.011Z,99458.01
2019-03-06T19:08:06.997Z,99456.42
2019-03-06T19:10:36.987Z,99456.85
2019-03-06T19:13:06.807Z,99450.92
2019-03-06T19:15:36.574Z,99453.83
2019-03-06T19:18:06.315Z,99445.19
2019-03-06T19:20:36.093Z,99454.34
2019-03-06T19:23:05.987Z,99455.83
2019-03-06T19:25:35.663Z,99454.39
2019-03-06T19:28:07.496Z,99454.23
2019-03-06T19:30:37.170Z,99448.84
2019-03-06T19:33:07.015Z,99446.50
2019-03-06T19:35:37.004Z,99440.16
2019-03-06T19:38:07.132Z,99447.81
2019-03-06T19:40:36.744Z,99437.17
2019-03-06T19:43:06.512Z,99436.66
2019-03-06T19:45:36.161Z,99438.33
2019-03-06T19:48:06.177Z,99432.12
2019-03-06T19:50:36.155Z,99423.67
2019-03-06T19:53:06.114Z,99418.16
2019-03-06T19:55:37.304Z,99419.78
2019-03-06T19:58:14.121Z,99413.47
2019-03-06T20:00:43.883Z,99407.55
2019-03-06T20:03:13.492Z,99409.52
2019-03-06T20:05:43.948Z,99404.38
2019-03-06T20:08:16.389Z,99398.33
2019-03-06T20:10:46.164Z,99396.34
2019-03-06T20:13:16.042Z,99395.39
2019-03-06T20:15:45.774Z,99392.61
2019-03-06T20:18:15.418Z,99403.59
2019-03-06T20:20:46.330Z,99398.69
2019-03-06T20:23:16.069Z,99387.48
2019-03-06T20:25:45.902Z,99385.50
2019-03-06T20:28:15.593Z,99378.26
2019-03-06T20:30:45.557Z,99374.38
2019-03-06T20:33:16.795Z,99377.92
2019-03-06T20:35:46.900Z,99390.77
2019-03-06T20:38:16.715Z,99371.17
2019-03-06T20:40:46.622Z,99371.23
2019-03-06T20:43:16.382Z,99369.27
2019-03-06T20:45:45.986Z,99360.71
2019-03-06T20:48:15.741Z,99358.55
2019-03-06T20:50:45.493Z,99365.23
2019-03-06T20:53:15.104Z,99349.47
2019-03-06T20:55:44.710Z,99360.63
2019-03-06T20:58:14.600Z,99354.11
2019-03-06T21:00:44.295Z,99339.60
2019-03-06T21:03:18.655Z,99333.33
2019-03-06T21:05:48.990Z,99325.70
2019-03-06T21:08:19.336Z,99320.48
2019-03-06T21:10:49.008Z,99318.94
2019-03-06T21:13:18.665Z,99317.05
2019-03-06T21:15:48.602Z,99309.52
2019-03-06T21:18:18.281Z,99308.33
2019-03-06T21:20:48.062Z,99304.67
2019-03-06T21:23:18.347Z,99295.81
2019-03-06T21:25:48.329Z,99304.96
2019-03-06T21:28:18.412Z,99297.85
2019-03-06T21:30:48.052Z,99302.68
2019-03-06T21:33:18.135Z,99291.30
2019-03-06T21:35:47.879Z,99294.89
2019-03-06T21:38:17.613Z,99298.30
2019-03-06T21:40:47.320Z,99284.06
2019-03-06T21:43:17.095Z,99286.96
2019-03-06T21:45:46.852Z,99283.17
2019-03-06T21:48:16.755Z,99281.00
2019-03-06T21:50:46.535Z,99283.45
2019-03-06T21:53:16.358Z,99284.60
2019-03-06T21:55:48.148Z,99278.55
2019-03-06T21:58:36.853Z,99281.91
2019-03-06T22:01:06.624Z,99274.91
2019-03-06T22:03:37.562Z,99280.88
2019-03-06T22:06:08.675Z,99282.03
2019-03-06T22:08:38.656Z,99264.73
2019-03-06T22:11:11.189Z,99284.08
2019-03-06T22:13:41.017Z,99271.22
2019-03-06T22:16:10.941Z,99283.16
2019-03-06T22:18:40.651Z,99267.22
2019-03-06T22:21:12.019Z,99278.53
2019-03-06T22:23:41.812Z,99257.77
2019-03-06T22:26:11.587Z,99257.84
2019-03-06T22:28:41.322Z,99269.61
2019-03-06T22:31:11.204Z,99265.77
2019-03-06T22:33:41.002Z,99249.48
2019-03-06T22:36:10.638Z,99270.61
2019-03-06T22:38:40.486Z,99276.73
2019-03-06T22:41:10.167Z,99243.67
2019-03-06T22:43:40.391Z,99262.31
2019-03-06T22:46:10.157Z,99259.52
2019-03-06T22:48:39.922Z,99240.13
2019-03-06T22:51:09.676Z,99233.88
2019-03-06T22:53:39.377Z,99240.44
2019-03-06T22:56:09.423Z,99238.87
2019-03-06T22:58:39.171Z,99240.86
2019-03-06T23:01:16.674Z,99232.52
2019-03-06T23:03:47.745Z,99228.96
2019-03-06T23:06:17.405Z,99221.56
2019-03-06T23:08:47.092Z,99214.78
2019-03-06T23:11:16.664Z,99206.86
2019-03-06T23:13:46.783Z,99205.08
2019-03-06T23:16:16.437Z,99207.27
2019-03-06T23:18:46.133Z,99206.00
2019-03-06T23:21:15.651Z,99207.78
2019-03-06T23:23:45.294Z,99204.46
2019-03-06T23:26:15.768Z,99190.17
2019-03-06T23:28:45.745Z,99195.80
2019-03-06T23:31:15.491Z,99197.58
2019-03-06T23:33:45.048Z,99198.52
2019-03-06T23:36:14.902Z,99204.15
2019-03-06T23:38:44.499Z,99196.22
2019-03-06T23:41:14.121Z,99201.11
2019-03-06T23:43:43.763Z,99194.75
2019-03-06T23:46:13.865Z,99202.48
2019-03-06T23:48:43.916Z,99191.91
2019-03-06T23:51:15.334Z,99185.53
2019-03-06T23:53:49.611Z,99175.38
2019-03-06T23:56:19.405Z,99170.36
2019-03-06T23:58:48.999Z,99175.59
